sensor_id;sensor_type;location;lat;lon;timestamp;temperature;humidity
3281;DHT22;1652;51.318;6.202;2022-10-16T00:01:11;12.80;99.90
3281;DHT22;1652;51.318;6.202;2022-10-16T00:03:39;12.80;99.90
3281;DHT22;1652;51.318;6.202;2022-10-16T00:06:07;12.80;99.90
3281;DHT22;1652;51.318;6.202;2022-10-16T00:08:34;12.70;99.90
3281;DHT22;1652;51.318;6.202;2022-10-16T00:11:11;12.60;99.90
3281;DHT22;1652;51.318;6.202;2022-10-16T00:13:40;12.50;99.90
3281;DHT22;1652;51.318;6.202;2022-10-16T00:16:08;12.60;99.90
3281;DHT22;1652;51.318;6.202;2022-10-16T00:18:35;12.50;99.90
3281;DHT22;1652;51.318;6.202;2022-10-16T00:21:09;12.50;99.90
3281;DHT22;1652;51.318;6.202;2022-10-16T00:23:37;12.60;99.90
3281;DHT22;1652;51.318;6.202;2022-10-16T00:26:07;12.60;99.90
3281;DHT22;1652;51.318;6.202;2022-10-16T00:28:34;12.60;99.90
3281;DHT22;1652;51.318;6.202;2022-10-16T00:31:10;12.50;99.90
3281;DHT22;1652;51.318;6.202;2022-10-16T00:33:39;12.60;99.90
3281;DHT22;1652;51.318;6.202;2022-10-16T00:36:09;12.70;99.90
3281;DHT22;1652;51.318;6.202;2022-10-16T00:38:36;12.60;99.90
3281;DHT22;1652;51.318;6.202;2022-10-16T00:41:09;12.60;99.90
3281;DHT22;1652;51.318;6.202;2022-10-16T00:43:47;12.60;99.90
3281;DHT22;1652;51.318;6.202;2022-10-16T00:46:19;12.60;99.90
3281;DHT22;1652;51.318;6.202;2022-10-16T00:51:37;12.60;99.90
3281;DHT22;1652;51.318;6.202;2022-10-16T00:54:09;12.60;99.90
3281;DHT22;1652;51.318;6.202;2022-10-16T00:56:36;12.60;99.90
3281;DHT22;1652;51.318;6.202;2022-10-16T00:59:07;12.50;99.90
3281;DHT22;1652;51.318;6.202;2022-10-16T01:01:38;12.50;99.90
3281;DHT22;1652;51.318;6.202;2022-10-16T01:04:05;12.60;99.90
3281;DHT22;1652;51.318;6.202;2022-10-16T01:11:48;12.50;99.90
3281;DHT22;1652;51.318;6.202;2022-10-16T01:17:22;12.40;99.90
3281;DHT22;1652;51.318;6.202;2022-10-16T01:22:48;12.30;99.90
3281;DHT22;1652;51.318;6.202;2022-10-16T01:28:11;12.30;99.90
3281;DHT22;1652;51.318;6.202;2022-10-16T01:30:41;12.30;99.90
3281;DHT22;1652;51.318;6.202;2022-10-16T01:35:46;12.30;99.90
3281;DHT22;1652;51.318;6.202;2022-10-16T01:38:25;12.30;99.90
3281;DHT22;1652;51.318;6.202;2022-10-16T01:43:45;12.40;99.90
3281;DHT22;1652;51.318;6.202;2022-10-16T01:46:14;12.50;99.90
3281;DHT22;1652;51.318;6.202;2022-10-16T01:48:42;12.50;99.90
3281;DHT22;1652;51.318;6.202;2022-10-16T01:51:12;12.50;99.90
3281;DHT22;1652;51.318;6.202;2022-10-16T01:53:40;12.60;99.90
3281;DHT22;1652;51.318;6.202;2022-10-16T01:56:10;12.70;99.90
3281;DHT22;1652;51.318;6.202;2022-10-16T01:58:42;12.70;99.90
3281;DHT22;1652;51.318;6.202;2022-10-16T02:01:13;12.60;99.90
3281;DHT22;1652;51.318;6.202;2022-10-16T02:04:13;12.60;99.90
3281;DHT22;1652;51.318;6.202;2022-10-16T02:06:42;12.60;99.90
3281;DHT22;1652;51.318;6.202;2022-10-16T02:09:09;12.50;99.90
3281;DHT22;1652;51.318;6.202;2022-10-16T02:11:36;12.50;99.90
3281;DHT22;1652;51.318;6.202;2022-10-16T02:14:05;12.40;99.90
3281;DHT22;1652;51.318;6.202;2022-10-16T02:16:35;12.40;99.90
3281;DHT22;1652;51.318;6.202;2022-10-16T02:19:04;12.40;99.90
3281;DHT22;1652;51.318;6.202;2022-10-16T02:21:49;12.40;99.90
3281;DHT22;1652;51.318;6.202;2022-10-16T02:24:38;12.40;99.90
3281;DHT22;1652;51.318;6.202;2022-10-16T02:29:45;12.20;99.90
3281;DHT22;1652;51.318;6.202;2022-10-16T02:32:23;12.20;99.90
3281;DHT22;1652;51.318;6.202;2022-10-16T02:34:51;12.30;99.90
3281;DHT22;1652;51.318;6.202;2022-10-16T02:37:18;12.30;99.90
3281;DHT22;1652;51.318;6.202;2022-10-16T02:39:45;12.30;99.90
3281;DHT22;1652;51.318;6.202;2022-10-16T02:42:13;12.30;99.90
3281;DHT22;1652;51.318;6.202;2022-10-16T02:44:40;12.20;99.90
3281;DHT22;1652;51.318;6.202;2022-10-16T02:47:07;12.30;99.90
3281;DHT22;1652;51.318;6.202;2022-10-16T02:49:34;12.30;99.90
3281;DHT22;1652;51.318;6.202;2022-10-16T02:52:01;12.20;99.90
3281;DHT22;1652;51.318;6.202;2022-10-16T02:54:28;12.20;99.90
3281;DHT22;1652;51.318;6.202;2022-10-16T02:56:55;12.10;99.90
3281;DHT22;1652;51.318;6.202;2022-10-16T02:59:22;12.20;99.90
3281;DHT22;1652;51.318;6.202;2022-10-16T03:01:49;12.30;99.90
3281;DHT22;1652;51.318;6.202;2022-10-16T03:04:16;12.30;99.90
3281;DHT22;1652;51.318;6.202;2022-10-16T03:06:43;12.30;99.90
3281;DHT22;1652;51.318;6.202;2022-10-16T03:09:10;12.20;99.90
3281;DHT22;1652;51.318;6.202;2022-10-16T03:11:36;12.20;99.90
3281;DHT22;1652;51.318;6.202;2022-10-16T03:14:03;12.20;99.90
3281;DHT22;1652;51.318;6.202;2022-10-16T03:16:30;12.20;99.90
3281;DHT22;1652;51.318;6.202;2022-10-16T03:18:57;12.30;99.90
3281;DHT22;1652;51.318;6.202;2022-10-16T03:21:24;12.30;99.90
3281;DHT22;1652;51.318;6.202;2022-10-16T03:23:51;12.40;99.90
3281;DHT22;1652;51.318;6.202;2022-10-16T03:26:18;12.30;99.90
3281;DHT22;1652;51.318;6.202;2022-10-16T03:28:44;12.30;99.90
3281;DHT22;1652;51.318;6.202;2022-10-16T03:31:11;12.30;99.90
3281;DHT22;1652;51.318;6.202;2022-10-16T03:33:38;12.30;99.90
3281;DHT22;1652;51.318;6.202;2022-10-16T03:36:05;12.40;99.90
3281;DHT22;1652;51.318;6.202;2022-10-16T03:38:33;12.40;99.90
3281;DHT22;1652;51.318;6.202;2022-10-16T03:41:00;12.50;99.90
3281;DHT22;1652;51.318;6.202;2022-10-16T03:43:27;12.40;99.90
3281;DHT22;1652;51.318;6.202;2022-10-16T03:45:53;12.50;99.90
3281;DHT22;1652;51.318;6.202;2022-10-16T03:48:20;12.50;99.90
3281;DHT22;1652;51.318;6.202;2022-10-16T03:50:47;12.40;99.90
3281;DHT22;1652;51.318;6.202;2022-10-16T03:53:15;12.30;99.90
3281;DHT22;1652;51.318;6.202;2022-10-16T03:55:42;12.10;99.90
3281;DHT22;1652;51.318;6.202;2022-10-16T03:58:10;12.10;99.90
3281;DHT22;1652;51.318;6.202;2022-10-16T04:00:44;12.10;99.90
3281;DHT22;1652;51.318;6.202;2022-10-16T04:03:11;12.00;99.90
3281;DHT22;1652;51.318;6.202;2022-10-16T04:05:39;12.10;99.90
3281;DHT22;1652;51.318;6.202;2022-10-16T04:08:06;12.00;99.90
3281;DHT22;1652;51.318;6.202;2022-10-16T04:10:33;12.00;99.90
3281;DHT22;1652;51.318;6.202;2022-10-16T04:12:59;12.00;99.90
3281;DHT22;1652;51.318;6.202;2022-10-16T04:15:26;12.00;99.90
3281;DHT22;1652;51.318;6.202;2022-10-16T04:17:53;12.10;99.90
3281;DHT22;1652;51.318;6.202;2022-10-16T04:20:20;12.00;99.90
3281;DHT22;1652;51.318;6.202;2022-10-16T04:22:47;12.00;99.90
3281;DHT22;1652;51.318;6.202;2022-10-16T04:25:14;12.00;99.90
3281;DHT22;1652;51.318;6.202;2022-10-16T04:27:41;11.90;99.90
3281;DHT22;1652;51.318;6.202;2022-10-16T04:30:11;11.90;99.90
3281;DHT22;1652;51.318;6.202;2022-10-16T04:32:39;12.00;99.90
3281;DHT22;1652;51.318;6.202;2022-10-16T04:35:06;12.00;99.90
3281;DHT22;1652;51.318;6.202;2022-10-16T04:37:33;12.00;99.90
3281;DHT22;1652;51.318;6.202;2022-10-16T04:40:00;12.00;99.90
3281;DHT22;1652;51.318;6.202;2022-10-16T04:42:26;12.00;99.90
3281;DHT22;1652;51.318;6.202;2022-10-16T04:44:53;12.00;99.90
3281;DHT22;1652;51.318;6.202;2022-10-16T04:47:21;12.00;99.90
3281;DHT22;1652;51.318;6.202;2022-10-16T04:49:48;11.90;99.90
3281;DHT22;1652;51.318;6.202;2022-10-16T04:52:14;11.90;99.90
3281;DHT22;1652;51.318;6.202;2022-10-16T04:54:41;12.20;99.90
3281;DHT22;1652;51.318;6.202;2022-10-16T04:57:08;12.10;99.90
3281;DHT22;1652;51.318;6.202;2022-10-16T04:59:35;12.10;99.90
3281;DHT22;1652;51.318;6.202;2022-10-16T05:02:02;12.10;99.90
3281;DHT22;1652;51.318;6.202;2022-10-16T05:04:29;12.10;99.90
3281;DHT22;1652;51.318;6.202;2022-10-16T05:06:56;12.20;99.90
3281;DHT22;1652;51.318;6.202;2022-10-16T05:09:23;12.20;99.90
3281;DHT22;1652;51.318;6.202;2022-10-16T05:11:50;12.20;99.90
3281;DHT22;1652;51.318;6.202;2022-10-16T05:14:17;12.20;99.90
3281;DHT22;1652;51.318;6.202;2022-10-16T05:16:44;12.10;99.90
3281;DHT22;1652;51.318;6.202;2022-10-16T05:19:11;12.20;99.90
3281;DHT22;1652;51.318;6.202;2022-10-16T05:21:54;12.20;99.90
3281;DHT22;1652;51.318;6.202;2022-10-16T05:24:21;12.20;99.90
3281;DHT22;1652;51.318;6.202;2022-10-16T05:26:49;12.30;99.90
3281;DHT22;1652;51.318;6.202;2022-10-16T05:29:16;12.30;99.90
3281;DHT22;1652;51.318;6.202;2022-10-16T05:31:43;12.30;99.90
3281;DHT22;1652;51.318;6.202;2022-10-16T05:34:09;12.30;99.90
3281;DHT22;1652;51.318;6.202;2022-10-16T05:36:36;12.30;99.90
3281;DHT22;1652;51.318;6.202;2022-10-16T05:41:40;12.40;99.90
3281;DHT22;1652;51.318;6.202;2022-10-16T05:44:06;12.40;99.90
3281;DHT22;1652;51.318;6.202;2022-10-16T05:46:33;12.50;99.90
3281;DHT22;1652;51.318;6.202;2022-10-16T05:49:00;12.40;99.90
3281;DHT22;1652;51.318;6.202;2022-10-16T05:51:27;12.30;99.90
3281;DHT22;1652;51.318;6.202;2022-10-16T05:53:54;12.40;99.90
3281;DHT22;1652;51.318;6.202;2022-10-16T05:56:21;12.40;99.90
3281;DHT22;1652;51.318;6.202;2022-10-16T05:58:47;12.40;99.90
3281;DHT22;1652;51.318;6.202;2022-10-16T06:01:19;12.30;99.90
3281;DHT22;1652;51.318;6.202;2022-10-16T06:03:47;12.30;99.90
3281;DHT22;1652;51.318;6.202;2022-10-16T06:06:19;12.40;99.90
3281;DHT22;1652;51.318;6.202;2022-10-16T06:08:48;12.50;99.90
3281;DHT22;1652;51.318;6.202;2022-10-16T06:11:20;12.50;99.90
3281;DHT22;1652;51.318;6.202;2022-10-16T06:13:58;12.60;99.90
3281;DHT22;1652;51.318;6.202;2022-10-16T06:16:27;12.60;99.90
3281;DHT22;1652;51.318;6.202;2022-10-16T06:18:55;12.70;99.90
3281;DHT22;1652;51.318;6.202;2022-10-16T06:21:24;12.70;99.90
3281;DHT22;1652;51.318;6.202;2022-10-16T06:23:52;12.80;99.90
3281;DHT22;1652;51.318;6.202;2022-10-16T06:26:20;12.80;99.90
3281;DHT22;1652;51.318;6.202;2022-10-16T06:28:49;12.80;99.90
3281;DHT22;1652;51.318;6.202;2022-10-16T06:31:17;12.90;99.90
3281;DHT22;1652;51.318;6.202;2022-10-16T06:33:43;12.90;99.90
3281;DHT22;1652;51.318;6.202;2022-10-16T06:36:14;12.90;99.90
3281;DHT22;1652;51.318;6.202;2022-10-16T06:38:42;12.90;99.90
3281;DHT22;1652;51.318;6.202;2022-10-16T06:41:11;12.90;99.90
3281;DHT22;1652;51.318;6.202;2022-10-16T06:43:39;12.90;99.90
3281;DHT22;1652;51.318;6.202;2022-10-16T06:46:09;12.90;99.90
3281;DHT22;1652;51.318;6.202;2022-10-16T06:48:36;12.90;99.90
3281;DHT22;1652;51.318;6.202;2022-10-16T06:51:09;12.80;99.90
3281;DHT22;1652;51.318;6.202;2022-10-16T06:53:40;12.90;99.90
3281;DHT22;1652;51.318;6.202;2022-10-16T06:56:28;12.90;99.90
3281;DHT22;1652;51.318;6.202;2022-10-16T06:58:56;13.00;99.90
3281;DHT22;1652;51.318;6.202;2022-10-16T07:01:24;13.10;99.90
3281;DHT22;1652;51.318;6.202;2022-10-16T07:03:51;13.00;99.90
3281;DHT22;1652;51.318;6.202;2022-10-16T07:06:21;13.00;99.90
3281;DHT22;1652;51.318;6.202;2022-10-16T07:08:49;13.00;99.90
3281;DHT22;1652;51.318;6.202;2022-10-16T07:11:19;13.00;99.90
3281;DHT22;1652;51.318;6.202;2022-10-16T07:13:47;13.30;99.90
3281;DHT22;1652;51.318;6.202;2022-10-16T07:16:23;13.90;99.90
3281;DHT22;1652;51.318;6.202;2022-10-16T07:18:50;14.60;99.90
3281;DHT22;1652;51.318;6.202;2022-10-16T07:21:21;15.40;99.90
3281;DHT22;1652;51.318;6.202;2022-10-16T07:23:53;15.90;99.90
3281;DHT22;1652;51.318;6.202;2022-10-16T07:26:22;16.50;99.90
3281;DHT22;1652;51.318;6.202;2022-10-16T07:28:49;16.90;99.90
3281;DHT22;1652;51.318;6.202;2022-10-16T07:31:17;17.10;99.90
3281;DHT22;1652;51.318;6.202;2022-10-16T07:33:45;17.20;99.90
3281;DHT22;1652;51.318;6.202;2022-10-16T07:36:18;17.40;99.90
3281;DHT22;1652;51.318;6.202;2022-10-16T07:38:46;17.40;99.90
3281;DHT22;1652;51.318;6.202;2022-10-16T07:41:15;17.60;99.90
3281;DHT22;1652;51.318;6.202;2022-10-16T07:43:47;17.90;99.90
3281;DHT22;1652;51.318;6.202;2022-10-16T07:46:14;18.10;99.90
3281;DHT22;1652;51.318;6.202;2022-10-16T07:48:41;18.20;99.90
3281;DHT22;1652;51.318;6.202;2022-10-16T07:51:14;18.20;99.90
3281;DHT22;1652;51.318;6.202;2022-10-16T07:53:41;18.40;99.90
3281;DHT22;1652;51.318;6.202;2022-10-16T07:56:08;18.50;99.90
3281;DHT22;1652;51.318;6.202;2022-10-16T07:58:35;18.50;99.90
3281;DHT22;1652;51.318;6.202;2022-10-16T08:01:09;18.70;99.90
3281;DHT22;1652;51.318;6.202;2022-10-16T08:03:36;18.80;98.90
3281;DHT22;1652;51.318;6.202;2022-10-16T08:06:04;18.70;98.50
3281;DHT22;1652;51.318;6.202;2022-10-16T08:08:31;18.70;99.90
3281;DHT22;1652;51.318;6.202;2022-10-16T08:10:58;18.60;99.90
3281;DHT22;1652;51.318;6.202;2022-10-16T08:13:25;18.70;98.60
3281;DHT22;1652;51.318;6.202;2022-10-16T08:15:53;18.90;99.60
3281;DHT22;1652;51.318;6.202;2022-10-16T08:18:21;19.10;94.60
3281;DHT22;1652;51.318;6.202;2022-10-16T08:20:48;19.10;95.70
3281;DHT22;1652;51.318;6.202;2022-10-16T08:23:21;18.80;96.60
3281;DHT22;1652;51.318;6.202;2022-10-16T08:25:47;18.30;99.90
3281;DHT22;1652;51.318;6.202;2022-10-16T08:28:14;17.80;99.90
3281;DHT22;1652;51.318;6.202;2022-10-16T08:30:42;17.60;99.90
3281;DHT22;1652;51.318;6.202;2022-10-16T08:33:09;17.30;99.90
3281;DHT22;1652;51.318;6.202;2022-10-16T08:35:36;17.20;99.90
3281;DHT22;1652;51.318;6.202;2022-10-16T08:38:04;17.00;99.90
3281;DHT22;1652;51.318;6.202;2022-10-16T08:40:33;16.90;99.90
3281;DHT22;1652;51.318;6.202;2022-10-16T08:48:17;16.80;99.90
3281;DHT22;1652;51.318;6.202;2022-10-16T08:50:45;16.70;99.90
3281;DHT22;1652;51.318;6.202;2022-10-16T08:53:30;16.70;99.90
3281;DHT22;1652;51.318;6.202;2022-10-16T08:55:57;16.70;99.90
3281;DHT22;1652;51.318;6.202;2022-10-16T08:58:29;16.70;99.90
3281;DHT22;1652;51.318;6.202;2022-10-16T09:01:00;16.70;99.90
3281;DHT22;1652;51.318;6.202;2022-10-16T09:14:58;16.60;99.90
3281;DHT22;1652;51.318;6.202;2022-10-16T09:20:32;16.60;99.90
3281;DHT22;1652;51.318;6.202;2022-10-16T09:25:32;16.60;99.90
3281;DHT22;1652;51.318;6.202;2022-10-16T09:27:59;16.70;99.90
3281;DHT22;1652;51.318;6.202;2022-10-16T09:30:28;16.70;99.90
3281;DHT22;1652;51.318;6.202;2022-10-16T09:32:58;16.70;99.90
3281;DHT22;1652;51.318;6.202;2022-10-16T09:35:43;16.80;99.90
3281;DHT22;1652;51.318;6.202;2022-10-16T09:38:26;16.80;99.90
3281;DHT22;1652;51.318;6.202;2022-10-16T09:40:53;16.90;99.90
3281;DHT22;1652;51.318;6.202;2022-10-16T09:43:41;16.80;99.90
3281;DHT22;1652;51.318;6.202;2022-10-16T09:48:59;16.90;99.90
3281;DHT22;1652;51.318;6.202;2022-10-16T09:51:35;16.90;99.90
3281;DHT22;1652;51.318;6.202;2022-10-16T09:56:36;17.00;99.90
3281;DHT22;1652;51.318;6.202;2022-10-16T09:59:12;17.10;99.90
3281;DHT22;1652;51.318;6.202;2022-10-16T10:04:08;17.00;99.90
3281;DHT22;1652;51.318;6.202;2022-10-16T10:06:37;17.00;99.90
3281;DHT22;1652;51.318;6.202;2022-10-16T10:11:50;17.20;99.90
3281;DHT22;1652;51.318;6.202;2022-10-16T10:16:48;17.40;99.90
3281;DHT22;1652;51.318;6.202;2022-10-16T10:19:17;17.50;99.90
3281;DHT22;1652;51.318;6.202;2022-10-16T10:21:45;17.80;99.90
3281;DHT22;1652;51.318;6.202;2022-10-16T10:24:14;17.90;99.90
3281;DHT22;1652;51.318;6.202;2022-10-16T10:27:08;18.10;99.90
3281;DHT22;1652;51.318;6.202;2022-10-16T10:29:47;18.20;99.90
3281;DHT22;1652;51.318;6.202;2022-10-16T10:32:33;18.40;99.90
3281;DHT22;1652;51.318;6.202;2022-10-16T10:35:20;18.50;99.10
3281;DHT22;1652;51.318;6.202;2022-10-16T10:40:48;18.50;99.90
3281;DHT22;1652;51.318;6.202;2022-10-16T10:46:20;18.80;95.60
3281;DHT22;1652;51.318;6.202;2022-10-16T10:54:56;18.80;91.80
3281;DHT22;1652;51.318;6.202;2022-10-16T10:57:42;18.90;88.60
3281;DHT22;1652;51.318;6.202;2022-10-16T11:03:40;18.90;92.10
3281;DHT22;1652;51.318;6.202;2022-10-16T11:09:16;18.80;11.90
3281;DHT22;1652;51.318;6.202;2022-10-16T11:14:23;18.70;21.40
3281;DHT22;1652;51.318;6.202;2022-10-16T11:16:57;18.60;44.10
3281;DHT22;1652;51.318;6.202;2022-10-16T11:19:41;18.80;25.00
3281;DHT22;1652;51.318;6.202;2022-10-16T11:22:22;18.80;14.70
3281;DHT22;1652;51.318;6.202;2022-10-16T11:25:19;19.00;11.00
3281;DHT22;1652;51.318;6.202;2022-10-16T11:27:58;19.20;1.00
3281;DHT22;1652;51.318;6.202;2022-10-16T11:30:30;19.30;1.00
3281;DHT22;1652;51.318;6.202;2022-10-16T11:33:25;19.30;1.00
3281;DHT22;1652;51.318;6.202;2022-10-16T11:36:11;19.40;1.00
3281;DHT22;1652;51.318;6.202;2022-10-16T11:41:24;19.40;1.00
3281;DHT22;1652;51.318;6.202;2022-10-16T11:50:42;19.40;1.00
3281;DHT22;1652;51.318;6.202;2022-10-16T11:53:18;19.20;1.00
3281;DHT22;1652;51.318;6.202;2022-10-16T11:55:51;19.20;1.00
3281;DHT22;1652;51.318;6.202;2022-10-16T11:58:29;19.10;1.00
3281;DHT22;1652;51.318;6.202;2022-10-16T12:03:40;19.20;1.00
3281;DHT22;1652;51.318;6.202;2022-10-16T12:08:59;19.30;1.00
3281;DHT22;1652;51.318;6.202;2022-10-16T12:11:36;19.30;1.00
3281;DHT22;1652;51.318;6.202;2022-10-16T12:14:19;19.20;1.00
3281;DHT22;1652;51.318;6.202;2022-10-16T12:16:58;18.90;1.00
3281;DHT22;1652;51.318;6.202;2022-10-16T12:19:28;18.90;1.00
3281;DHT22;1652;51.318;6.202;2022-10-16T12:21:59;18.80;1.00
3281;DHT22;1652;51.318;6.202;2022-10-16T12:24:42;18.70;5.80
3281;DHT22;1652;51.318;6.202;2022-10-16T12:27:38;18.70;1.00
3281;DHT22;1652;51.318;6.202;2022-10-16T12:30:06;18.40;18.20
3281;DHT22;1652;51.318;6.202;2022-10-16T12:32:37;18.40;12.10
3281;DHT22;1652;51.318;6.202;2022-10-16T12:35:22;18.30;29.20
3281;DHT22;1652;51.318;6.202;2022-10-16T12:37:51;18.30;25.80
3281;DHT22;1652;51.318;6.202;2022-10-16T12:42:53;18.50;4.30
3281;DHT22;1652;51.318;6.202;2022-10-16T12:45:32;18.40;26.40
3281;DHT22;1652;51.318;6.202;2022-10-16T12:48:01;18.30;18.50
3281;DHT22;1652;51.318;6.202;2022-10-16T12:50:38;18.10;24.10
3281;DHT22;1652;51.318;6.202;2022-10-16T12:53:23;18.10;21.20
3281;DHT22;1652;51.318;6.202;2022-10-16T12:56:15;18.10;1.00
3281;DHT22;1652;51.318;6.202;2022-10-16T12:58:55;18.20;8.10
3281;DHT22;1652;51.318;6.202;2022-10-16T13:06:42;18.20;9.00
3281;DHT22;1652;51.318;6.202;2022-10-16T13:15:52;18.10;19.60
3281;DHT22;1652;51.318;6.202;2022-10-16T13:26:49;18.40;31.50
3281;DHT22;1652;51.318;6.202;2022-10-16T13:29:19;18.60;1.00
3281;DHT22;1652;51.318;6.202;2022-10-16T13:31:46;18.70;1.00
3281;DHT22;1652;51.318;6.202;2022-10-16T13:34:16;18.80;4.10
3281;DHT22;1652;51.318;6.202;2022-10-16T13:36:50;19.00;1.00
3281;DHT22;1652;51.318;6.202;2022-10-16T13:39:27;19.00;1.00
3281;DHT22;1652;51.318;6.202;2022-10-16T13:42:04;19.00;1.00
3281;DHT22;1652;51.318;6.202;2022-10-16T13:44:47;19.10;1.00
3281;DHT22;1652;51.318;6.202;2022-10-16T13:47:27;18.90;1.00
3281;DHT22;1652;51.318;6.202;2022-10-16T13:50:13;18.90;1.00
3281;DHT22;1652;51.318;6.202;2022-10-16T13:52:41;18.80;1.00
3281;DHT22;1652;51.318;6.202;2022-10-16T13:55:12;18.80;5.00
3281;DHT22;1652;51.318;6.202;2022-10-16T13:57:40;18.90;1.00
3281;DHT22;1652;51.318;6.202;2022-10-16T14:00:27;18.90;1.00
3281;DHT22;1652;51.318;6.202;2022-10-16T14:03:13;18.80;9.90
3281;DHT22;1652;51.318;6.202;2022-10-16T14:08:15;18.70;1.00
3281;DHT22;1652;51.318;6.202;2022-10-16T14:10:42;18.60;19.70
3281;DHT22;1652;51.318;6.202;2022-10-16T14:13:19;18.60;42.90
3281;DHT22;1652;51.318;6.202;2022-10-16T14:15:49;18.60;36.80
3281;DHT22;1652;51.318;6.202;2022-10-16T14:18:23;18.60;20.60
3281;DHT22;1652;51.318;6.202;2022-10-16T14:20:51;18.60;25.70
3281;DHT22;1652;51.318;6.202;2022-10-16T14:23:30;18.40;26.90
3281;DHT22;1652;51.318;6.202;2022-10-16T14:28:38;18.20;41.00
3281;DHT22;1652;51.318;6.202;2022-10-16T14:33:46;18.00;84.10
3281;DHT22;1652;51.318;6.202;2022-10-16T14:36:14;17.80;96.10
3281;DHT22;1652;51.318;6.202;2022-10-16T14:41:21;17.50;99.90
3281;DHT22;1652;51.318;6.202;2022-10-16T14:43:55;17.50;99.90
3281;DHT22;1652;51.318;6.202;2022-10-16T14:46:30;17.50;99.90
3281;DHT22;1652;51.318;6.202;2022-10-16T14:49:02;17.40;99.90
3281;DHT22;1652;51.318;6.202;2022-10-16T14:51:30;17.30;99.90
3281;DHT22;1652;51.318;6.202;2022-10-16T14:53:57;17.60;99.90
3281;DHT22;1652;51.318;6.202;2022-10-16T14:56:30;17.70;99.90
3281;DHT22;1652;51.318;6.202;2022-10-16T14:58:59;17.70;99.90
3281;DHT22;1652;51.318;6.202;2022-10-16T15:01:27;17.70;99.90
3281;DHT22;1652;51.318;6.202;2022-10-16T15:03:54;17.70;99.20
3281;DHT22;1652;51.318;6.202;2022-10-16T15:06:21;17.50;99.90
3281;DHT22;1652;51.318;6.202;2022-10-16T15:08:48;17.50;99.90
3281;DHT22;1652;51.318;6.202;2022-10-16T15:11:17;17.50;99.90
3281;DHT22;1652;51.318;6.202;2022-10-16T15:13:46;17.40;99.90
3281;DHT22;1652;51.318;6.202;2022-10-16T15:16:15;17.60;99.90
3281;DHT22;1652;51.318;6.202;2022-10-16T15:18:42;17.90;98.40
3281;DHT22;1652;51.318;6.202;2022-10-16T15:21:23;17.90;91.60
3281;DHT22;1652;51.318;6.202;2022-10-16T15:23:50;17.90;99.90
3281;DHT22;1652;51.318;6.202;2022-10-16T15:26:17;17.90;98.40
3281;DHT22;1652;51.318;6.202;2022-10-16T15:28:44;17.80;99.90
3281;DHT22;1652;51.318;6.202;2022-10-16T15:31:11;17.60;99.90
3281;DHT22;1652;51.318;6.202;2022-10-16T15:33:38;17.60;99.90
3281;DHT22;1652;51.318;6.202;2022-10-16T15:36:06;17.50;99.90
3281;DHT22;1652;51.318;6.202;2022-10-16T15:38:33;17.40;99.90
3281;DHT22;1652;51.318;6.202;2022-10-16T15:41:00;17.30;99.90
3281;DHT22;1652;51.318;6.202;2022-10-16T15:43:27;17.50;99.90
3281;DHT22;1652;51.318;6.202;2022-10-16T15:46:04;17.50;96.80
3281;DHT22;1652;51.318;6.202;2022-10-16T15:48:33;17.50;94.70
3281;DHT22;1652;51.318;6.202;2022-10-16T15:51:00;17.40;99.90
3281;DHT22;1652;51.318;6.202;2022-10-16T15:53:31;17.20;99.90
3281;DHT22;1652;51.318;6.202;2022-10-16T15:55:58;17.10;99.90
3281;DHT22;1652;51.318;6.202;2022-10-16T15:58:28;17.00;99.90
3281;DHT22;1652;51.318;6.202;2022-10-16T16:00:58;16.90;99.90
3281;DHT22;1652;51.318;6.202;2022-10-16T16:03:29;16.80;99.90
3281;DHT22;1652;51.318;6.202;2022-10-16T16:05:57;16.80;99.90
3281;DHT22;1652;51.318;6.202;2022-10-16T16:08:24;16.80;99.90
3281;DHT22;1652;51.318;6.202;2022-10-16T16:11:03;16.90;99.90
3281;DHT22;1652;51.318;6.202;2022-10-16T16:13:30;16.80;99.90
3281;DHT22;1652;51.318;6.202;2022-10-16T16:15:57;16.60;99.90
3281;DHT22;1652;51.318;6.202;2022-10-16T16:18:24;16.50;99.90
3281;DHT22;1652;51.318;6.202;2022-10-16T16:20:52;16.40;99.90
3281;DHT22;1652;51.318;6.202;2022-10-16T16:23:19;16.30;99.90
3281;DHT22;1652;51.318;6.202;2022-10-16T16:26:06;16.20;99.90
3281;DHT22;1652;51.318;6.202;2022-10-16T16:28:34;16.10;99.90
3281;DHT22;1652;51.318;6.202;2022-10-16T16:31:01;16.10;99.90
3281;DHT22;1652;51.318;6.202;2022-10-16T16:33:28;16.00;99.90
3281;DHT22;1652;51.318;6.202;2022-10-16T16:35:59;15.90;99.90
3281;DHT22;1652;51.318;6.202;2022-10-16T16:38:27;16.00;99.90
3281;DHT22;1652;51.318;6.202;2022-10-16T16:40:54;16.30;99.90
3281;DHT22;1652;51.318;6.202;2022-10-16T16:43:26;16.10;99.90
3281;DHT22;1652;51.318;6.202;2022-10-16T16:45:54;16.00;99.90
3281;DHT22;1652;51.318;6.202;2022-10-16T16:48:21;16.00;99.90
3281;DHT22;1652;51.318;6.202;2022-10-16T16:50:48;15.90;99.90
3281;DHT22;1652;51.318;6.202;2022-10-16T16:53:15;15.70;99.90
3281;DHT22;1652;51.318;6.202;2022-10-16T16:55:42;15.60;99.90
3281;DHT22;1652;51.318;6.202;2022-10-16T16:58:09;15.90;99.90
3281;DHT22;1652;51.318;6.202;2022-10-16T17:00:36;16.10;99.90
3281;DHT22;1652;51.318;6.202;2022-10-16T17:03:02;16.00;99.90
3281;DHT22;1652;51.318;6.202;2022-10-16T17:05:29;15.90;99.90
3281;DHT22;1652;51.318;6.202;2022-10-16T17:07:56;15.90;99.90
3281;DHT22;1652;51.318;6.202;2022-10-16T17:10:23;15.80;99.90
3281;DHT22;1652;51.318;6.202;2022-10-16T17:12:50;15.70;99.90
3281;DHT22;1652;51.318;6.202;2022-10-16T17:15:17;15.50;99.90
3281;DHT22;1652;51.318;6.202;2022-10-16T17:17:44;15.50;99.90
3281;DHT22;1652;51.318;6.202;2022-10-16T17:20:11;15.60;99.90
3281;DHT22;1652;51.318;6.202;2022-10-16T17:22:37;15.70;99.90
3281;DHT22;1652;51.318;6.202;2022-10-16T17:25:05;15.70;99.90
3281;DHT22;1652;51.318;6.202;2022-10-16T17:27:33;15.80;99.90
3281;DHT22;1652;51.318;6.202;2022-10-16T17:30:04;15.90;99.90
3281;DHT22;1652;51.318;6.202;2022-10-16T17:32:31;15.80;99.90
3281;DHT22;1652;51.318;6.202;2022-10-16T17:34:58;15.80;99.90
3281;DHT22;1652;51.318;6.202;2022-10-16T17:37:25;15.90;99.90
3281;DHT22;1652;51.318;6.202;2022-10-16T17:39:52;15.90;99.90
3281;DHT22;1652;51.318;6.202;2022-10-16T17:42:19;15.80;99.90
3281;DHT22;1652;51.318;6.202;2022-10-16T17:44:46;15.80;99.90
3281;DHT22;1652;51.318;6.202;2022-10-16T17:47:12;15.90;99.90
3281;DHT22;1652;51.318;6.202;2022-10-16T17:49:39;16.00;99.90
3281;DHT22;1652;51.318;6.202;2022-10-16T17:52:06;15.80;99.90
3281;DHT22;1652;51.318;6.202;2022-10-16T17:54:33;15.60;99.90
3281;DHT22;1652;51.318;6.202;2022-10-16T17:57:00;15.50;99.90
3281;DHT22;1652;51.318;6.202;2022-10-16T17:59:27;15.60;99.90
3281;DHT22;1652;51.318;6.202;2022-10-16T18:01:54;15.70;99.90
3281;DHT22;1652;51.318;6.202;2022-10-16T18:04:21;15.70;99.90
3281;DHT22;1652;51.318;6.202;2022-10-16T18:06:48;15.80;99.90
3281;DHT22;1652;51.318;6.202;2022-10-16T18:09:17;15.80;99.90
3281;DHT22;1652;51.318;6.202;2022-10-16T18:11:44;15.60;99.90
3281;DHT22;1652;51.318;6.202;2022-10-16T18:14:12;15.60;99.90
3281;DHT22;1652;51.318;6.202;2022-10-16T18:16:40;15.60;99.90
3281;DHT22;1652;51.318;6.202;2022-10-16T18:19:09;15.70;99.90
3281;DHT22;1652;51.318;6.202;2022-10-16T18:21:36;15.80;99.90
3281;DHT22;1652;51.318;6.202;2022-10-16T18:24:03;15.80;99.90
3281;DHT22;1652;51.318;6.202;2022-10-16T18:26:30;15.90;99.90
3281;DHT22;1652;51.318;6.202;2022-10-16T18:28:57;15.90;99.90
3281;DHT22;1652;51.318;6.202;2022-10-16T18:31:24;15.80;99.90
3281;DHT22;1652;51.318;6.202;2022-10-16T18:33:52;15.70;99.90